バンコク/スワンナプーム の空港の天気 - METARとTAF

スワンナプーム国際空港 ( VTBS / BKK ) - タイ サムットプラーカーン県 (バンコク近郊)
飛行場実況気象(Metar)
観測時間04/25 21:30 ICT (04/25 14:30 UTC)
風向・風速南 4m/s
視程9000m
天気現象
-
気温30℃
湿度75%
気圧1008hPa
METARVTBS 251430Z 17008KT 9000 30/25 Q1008 NOSIG
過去の天気等 Google飛行場航空写真 Wunderground天気予報

過去48時間のMETAR

飛行場予報(TAF)
発表時間: 4/25 18:00 ICT (4/25 11:00 UTC)
予報対象時間: 25日19時 ICT ~ 27日1時 ICT
風向・風速南 4m/s
視程10km以上
少しの雲 雲底高度 610m
26日11時 ICT ~ 26日19時 ICT に一時的に
風向・風速不定 5m/s
視程5,000m
天気現象雷雨
少しの積乱雲 雲底高度 550m
全天の4割程度の雲 雲底高度 610m
全天の8割程度の雲 雲底高度 3,050m
TAF VTBS 251100Z 2512/2618 18008KT 9999 FEW020
TEMPO 2604/2612 VRB10KT 5000 TSRA FEW018CB SCT020 BKN100